Time,TemperatureF,DewpointF,PressureIn,WindDirection,WindDirectionDegrees,WindSpeedMPH,WindSpeedGustMPH,Humidity,HourlyPrecipIn,Conditions,Clouds,dailyrainin,SoftwareType,DateUTC
2013-02-21 00:00:00,27.1,8.1,29.15,NW,325,0.0,0.0,44,0.00,,OVC060,0.00,VWS V14.01,2013-02-21 05:00:00,
2013-02-21 00:04:00,27.1,8.1,29.15,West,273,5.4,5.4,44,0.00,,OVC060,0.00,VWS V14.01,2013-02-21 05:04:00,
2013-02-21 00:09:00,27.0,8.0,29.15,West,263,6.3,6.3,44,0.00,,OVC060,0.00,VWS V14.01,2013-02-21 05:09:00,
2013-02-21 00:14:00,27.0,8.0,29.15,SW,224,4.5,4.5,44,0.00,,OVC060,0.00,VWS V14.01,2013-02-21 05:14:00,
2013-02-21 00:19:00,27.0,8.0,29.15,SW,233,10.7,10.7,44,0.00,,OVC060,0.00,VWS V14.01,2013-02-21 05:19:00,
2013-02-21 00:24:00,27.0,8.0,29.15,West,269,4.5,4.5,44,0.00,,OVC060,0.00,VWS V14.01,2013-02-21 05:24:00,
2013-02-21 00:29:00,27.0,8.0,29.15,North,350,5.4,6.3,44,0.00,,OVC060,0.00,VWS V14.01,2013-02-21 05:29:00,
2013-02-21 00:34:00,27.0,8.0,29.15,West,276,0.0,0.0,44,0.00,,OVC060,0.00,VWS V14.01,2013-02-21 05:34:00,
2013-02-21 00:40:00,26.8,7.8,29.15,WNW,284,6.3,6.3,44,0.00,,OVC060,0.00,VWS V14.01,2013-02-21 05:40:00,
2013-02-21 00:45:00,26.8,7.8,29.15,WSW,258,5.4,5.4,44,0.00,,OVC060,0.00,VWS V14.01,2013-02-21 05:45:00,
2013-02-21 00:50:00,26.8,7.8,29.15,SW,228,8.1,8.1,44,0.00,,OVC060,0.00,VWS V14.01,2013-02-21 05:50:00,
2013-02-21 00:55:00,27.0,7.5,29.15,NW,324,5.4,5.4,43,0.00,,OVC060,0.00,VWS V14.01,2013-02-21 05:55:00,
2013-02-21 01:00:00,27.0,8.0,29.15,SW,234,15.2,15.2,44,0.00,,OVC060,0.00,VWS V14.01,2013-02-21 06:00:00,
2013-02-21 01:05:00,27.0,8.0,29.15,West,268,6.3,6.3,44,0.00,,OVC060,0.00,VWS V14.01,2013-02-21 06:05:00,
2013-02-21 01:10:00,27.0,7.5,29.15,WSW,237,6.3,6.3,43,0.00,,OVC060,0.00,VWS V14.01,2013-02-21 06:10:00,
2013-02-21 01:15:00,27.0,7.5,29.15,West,264,6.3,6.3,43,0.00,,OVC060,0.00,VWS V14.01,2013-02-21 06:15:00,
2013-02-21 01:20:00,27.0,7.5,29.15,WNW,295,7.2,7.2,43,0.00,,OVC060,0.00,VWS V14.01,2013-02-21 06:20:00,
2013-02-21 01:25:00,27.0,7.5,29.15,West,272,8.1,8.1,43,0.00,,OVC060,0.00,VWS V14.01,2013-02-21 06:25:00,
2013-02-21 01:31:00,27.0,7.5,29.15,West,280,9.8,9.8,43,0.00,,OVC060,0.00,VWS V14.01,2013-02-21 06:31:00,
2013-02-21 01:36:00,27.0,7.5,29.15,West,270,0.0,4.0,43,0.00,,OVC060,0.00,VWS V14.01,2013-02-21 06:36:00,
2013-02-21 01:41:00,27.0,7.5,29.15,West,261,6.3,6.3,43,0.00,,OVC060,0.00,VWS V14.01,2013-02-21 06:41:00,
2013-02-21 01:46:00,26.8,7.3,29.15,West,266,7.2,7.2,43,0.00,,OVC060,0.00,VWS V14.01,2013-02-21 06:46:00,
2013-02-21 01:51:00,26.6,7.6,29.15,West,280,5.4,5.4,44,0.00,,OVC065,0.00,VWS V14.01,2013-02-21 06:51:00,
2013-02-21 01:56:00,26.4,7.5,29.15,WNW,299,5.4,5.4,44,0.00,,OVC065,0.00,VWS V14.01,2013-02-21 06:56:00,
2013-02-21 02:01:00,26.4,7.5,29.15,NW,311,5.4,5.4,44,0.00,,FEW090,0.00,VWS V14.01,2013-02-21 07:01:00,
2013-02-21 02:06:00,26.2,7.3,29.15,WNW,293,6.3,6.3,44,0.00,,FEW090,0.00,VWS V14.01,2013-02-21 07:06:00,
2013-02-21 02:11:00,26.1,7.2,29.15,West,263,0.0,0.0,44,0.00,,FEW090,0.00,VWS V14.01,2013-02-21 07:11:00,
2013-02-21 02:16:00,26.1,7.2,29.15,WSW,243,9.8,9.8,44,0.00,,FEW090,0.00,VWS V14.01,2013-02-21 07:16:00,
2013-02-21 02:21:00,26.1,7.2,29.15,West,262,0.0,0.0,44,0.00,,FEW090,0.00,VWS V14.01,2013-02-21 07:21:00,
2013-02-21 02:26:00,25.9,7.0,29.15,West,273,0.0,0.0,44,0.00,,FEW090,0.00,VWS V14.01,2013-02-21 07:26:00,
2013-02-21 02:31:00,25.9,7.0,29.15,SW,232,8.1,8.1,44,0.00,,FEW090,0.00,VWS V14.01,2013-02-21 07:31:00,
2013-02-21 02:37:00,25.7,6.8,29.15,West,259,7.2,7.2,44,0.00,,FEW090,0.00,VWS V14.01,2013-02-21 07:37:00,
2013-02-21 02:42:00,25.5,6.7,29.15,West,272,5.4,5.4,44,0.00,,FEW090,0.00,VWS V14.01,2013-02-21 07:42:00,
2013-02-21 02:47:00,25.3,6.5,29.15,WNW,285,0.0,0.0,44,0.00,,FEW090,0.00,VWS V14.01,2013-02-21 07:47:00,
2013-02-21 02:52:00,25.3,6.5,29.15,WSW,243,0.0,0.0,44,0.00,,FEW090,0.00,VWS V14.01,2013-02-21 07:52:00,
2013-02-21 02:57:00,25.2,6.3,29.15,West,277,8.1,8.1,44,0.00,,FEW090,0.00,VWS V14.01,2013-02-21 07:57:00,
2013-02-21 03:02:00,25.2,6.3,29.15,WNW,298,0.0,0.0,44,0.00,,CLR,0.00,VWS V14.01,2013-02-21 08:02:00,
2013-02-21 03:07:00,25.2,6.3,29.18,NW,305,0.0,0.0,44,0.00,,CLR,0.00,VWS V14.01,2013-02-21 08:07:00,
2013-02-21 03:12:00,25.0,6.2,29.18,WSW,256,4.5,4.5,44,0.00,,CLR,0.00,VWS V14.01,2013-02-21 08:12:00,
2013-02-21 03:17:00,25.0,6.7,29.18,WNW,290,0.0,0.0,45,0.00,,CLR,0.00,VWS V14.01,2013-02-21 08:17:00,
2013-02-21 03:22:00,24.8,6.5,29.18,West,276,5.4,5.4,45,0.00,,CLR,0.00,VWS V14.01,2013-02-21 08:22:00,
2013-02-21 03:27:00,24.8,6.5,29.18,WNW,283,0.0,0.0,45,0.00,,CLR,0.00,VWS V14.01,2013-02-21 08:27:00,
2013-02-21 03:32:00,24.6,6.3,29.18,WNW,291,6.3,6.3,45,0.00,,CLR,0.00,VWS V14.01,2013-02-21 08:32:00,
2013-02-21 03:37:00,24.4,6.2,29.18,NW,312,0.0,0.0,45,0.00,,CLR,0.00,VWS V14.01,2013-02-21 08:37:00,
2013-02-21 03:43:00,24.4,6.6,29.18,West,281,0.0,2.2,46,0.00,,CLR,0.00,VWS V14.01,2013-02-21 08:43:00,
2013-02-21 03:48:00,24.4,6.6,29.15,WSW,257,0.0,2.2,46,0.00,,CLR,0.00,VWS V14.01,2013-02-21 08:48:00,
2013-02-21 03:53:00,24.4,6.2,29.15,NNW,341,0.0,0.0,45,0.00,,CLR,0.00,VWS V14.01,2013-02-21 08:53:00,
2013-02-21 03:58:00,24.4,6.2,29.15,North,7,6.3,6.3,45,0.00,,CLR,0.00,VWS V14.01,2013-02-21 08:58:00,
2013-02-21 04:03:00,24.3,6.0,29.18,WNW,302,0.0,0.0,45,0.00,,CLR,0.00,VWS V14.01,2013-02-21 09:03:00,
2013-02-21 04:08:00,24.1,5.8,29.18,NW,313,8.1,8.1,45,0.00,,CLR,0.00,VWS V14.01,2013-02-21 09:08:00,
2013-02-21 04:13:00,24.1,5.8,29.18,WNW,299,4.5,4.5,45,0.00,,CLR,0.00,VWS V14.01,2013-02-21 09:13:00,
2013-02-21 04:18:00,23.9,5.2,29.18,West,276,0.0,0.0,44,0.00,,CLR,0.00,VWS V14.01,2013-02-21 09:18:00,
2013-02-21 04:23:00,23.9,5.2,29.18,NNW,336,0.0,0.0,44,0.00,,CLR,0.00,VWS V14.01,2013-02-21 09:23:00,
2013-02-21 04:28:00,23.7,5.0,29.18,NW,324,5.4,5.4,44,0.00,,CLR,0.00,VWS V14.01,2013-02-21 09:28:00,
2013-02-21 04:33:00,23.7,5.0,29.18,WSW,252,7.2,7.2,44,0.00,,CLR,0.00,VWS V14.01,2013-02-21 09:33:00,
2013-02-21 04:38:00,23.7,5.0,29.18,NW,322,0.0,2.2,44,0.00,,CLR,0.00,VWS V14.01,2013-02-21 09:38:00,
2013-02-21 04:44:00,23.5,4.8,29.18,West,271,0.0,0.0,44,0.00,,CLR,0.00,VWS V14.01,2013-02-21 09:44:00,
2013-02-21 04:49:00,23.5,4.8,29.18,NW,313,0.0,0.0,44,0.00,,CLR,0.00,VWS V14.01,2013-02-21 09:49:00,
2013-02-21 04:54:00,23.4,4.7,29.18,West,273,6.3,6.3,44,0.00,,CLR,0.00,VWS V14.01,2013-02-21 09:54:00,
2013-02-21 04:59:00,23.2,4.5,29.18,NNW,333,0.0,0.0,44,0.00,,CLR,0.00,VWS V14.01,2013-02-21 09:59:00,
2013-02-21 05:04:00,23.2,4.5,29.18,NW,319,8.1,8.1,44,0.00,,CLR,0.00,VWS V14.01,2013-02-21 10:04:00,
2013-02-21 05:09:00,23.0,4.3,29.18,West,273,8.1,8.1,44,0.00,,CLR,0.00,VWS V14.01,2013-02-21 10:09:00,
2013-02-21 05:14:00,22.8,4.2,29.18,West,266,0.0,0.0,44,0.00,,CLR,0.00,VWS V14.01,2013-02-21 10:14:00,
2013-02-21 05:19:00,22.8,4.2,29.18,NW,317,5.4,5.4,44,0.00,,CLR,0.00,VWS V14.01,2013-02-21 10:19:00,
2013-02-21 05:24:00,22.8,4.2,29.18,SSW,211,7.2,7.2,44,0.00,,CLR,0.00,VWS V14.01,2013-02-21 10:24:00,
2013-02-21 05:29:00,22.6,4.0,29.18,West,278,0.0,0.0,44,0.00,,CLR,0.00,VWS V14.01,2013-02-21 10:29:00,
2013-02-21 05:34:00,22.5,3.9,29.18,WNW,302,6.3,6.3,44,0.00,,CLR,0.00,VWS V14.01,2013-02-21 10:34:00,
2013-02-21 05:39:00,22.5,3.9,29.18,North,357,5.4,5.4,44,0.00,,CLR,0.00,VWS V14.01,2013-02-21 10:39:00,
2013-02-21 05:44:00,22.3,3.7,29.18,SW,236,0.0,0.0,44,0.00,,CLR,0.00,VWS V14.01,2013-02-21 10:44:00,
2013-02-21 05:50:00,22.3,3.7,29.21,NNW,329,0.0,4.9,44,0.00,,CLR,0.00,VWS V14.01,2013-02-21 10:50:00,
2013-02-21 05:55:00,22.3,3.7,29.21,West,268,7.2,7.2,44,0.00,,CLR,0.00,VWS V14.01,2013-02-21 10:55:00,
2013-02-21 06:00:00,22.1,3.5,29.21,West,263,9.8,9.8,44,0.00,,CLR,0.00,VWS V14.01,2013-02-21 11:00:00,
2013-02-21 06:05:00,21.9,3.4,29.21,WNW,293,0.0,5.8,44,0.00,,CLR,0.00,VWS V14.01,2013-02-21 11:05:00,
2013-02-21 06:10:00,21.9,3.4,29.21,WNW,286,6.3,6.3,44,0.00,,CLR,0.00,VWS V14.01,2013-02-21 11:10:00,
2013-02-21 06:15:00,21.7,3.2,29.21,WSW,243,0.0,4.0,44,0.00,,CLR,0.00,VWS V14.01,2013-02-21 11:15:00,
2013-02-21 06:20:00,21.7,3.2,29.21,WNW,293,6.3,6.3,44,0.00,,CLR,0.00,VWS V14.01,2013-02-21 11:20:00,
2013-02-21 06:25:00,21.6,3.0,29.21,NW,314,0.0,0.0,44,0.00,,CLR,0.00,VWS V14.01,2013-02-21 11:25:00,
2013-02-21 06:30:00,21.4,2.9,29.21,WSW,247,5.4,5.4,44,0.00,,CLR,0.00,VWS V14.01,2013-02-21 11:30:00,
2013-02-21 06:35:00,21.4,2.9,29.21,WNW,291,5.4,5.4,44,0.00,,CLR,0.00,VWS V14.01,2013-02-21 11:35:00,
2013-02-21 06:40:00,21.2,2.7,29.21,WSW,243,6.3,6.3,44,0.00,,CLR,0.00,VWS V14.01,2013-02-21 11:40:00,
2013-02-21 06:45:00,21.2,2.7,29.21,WNW,284,0.0,3.1,44,0.00,,CLR,0.00,VWS V14.01,2013-02-21 11:45:00,
2013-02-21 06:51:00,21.2,2.7,29.23,WSW,251,7.2,7.2,44,0.00,,CLR,0.00,VWS V14.01,2013-02-21 11:51:00,
2013-02-21 06:56:00,21.0,3.0,29.23,West,266,6.3,6.3,45,0.00,,CLR,0.00,VWS V14.01,2013-02-21 11:56:00,
2013-02-21 07:01:00,21.0,3.0,29.23,WNW,292,0.0,4.0,45,0.00,,CLR,0.00,VWS V14.01,2013-02-21 12:01:00,
2013-02-21 07:06:00,20.8,2.9,29.23,NW,319,0.0,0.0,45,0.00,,CLR,0.00,VWS V14.01,2013-02-21 12:06:00,
2013-02-21 07:11:00,20.8,2.9,29.23,West,276,8.1,8.1,45,0.00,,CLR,0.00,VWS V14.01,2013-02-21 12:11:00,
2013-02-21 07:16:00,20.8,2.9,29.23,SW,228,0.0,0.0,45,0.00,,CLR,0.00,VWS V14.01,2013-02-21 12:16:00,
2013-02-21 07:21:00,20.8,2.9,29.23,West,281,5.4,5.4,45,0.00,,CLR,0.00,VWS V14.01,2013-02-21 12:21:00,
2013-02-21 07:26:00,21.0,3.0,29.23,NNW,329,7.2,7.2,45,0.00,,CLR,0.00,VWS V14.01,2013-02-21 12:26:00,
2013-02-21 07:31:00,21.2,3.2,29.23,WNW,287,0.0,3.6,45,0.00,,CLR,0.00,VWS V14.01,2013-02-21 12:31:00,
2013-02-21 07:36:00,21.2,3.2,29.26,NW,307,4.5,4.5,45,0.00,,CLR,0.00,VWS V14.01,2013-02-21 12:36:00,
2013-02-21 07:41:00,21.2,3.2,29.26,WNW,299,0.0,0.0,45,0.00,,CLR,0.00,VWS V14.01,2013-02-21 12:41:00,
2013-02-21 07:46:00,21.4,2.9,29.26,West,260,12.5,12.5,44,0.00,,CLR,0.00,VWS V14.01,2013-02-21 12:46:00,
2013-02-21 07:51:00,21.6,3.0,29.26,NNW,341,0.0,0.0,44,0.00,,CLR,0.00,VWS V14.01,2013-02-21 12:51:00,
2013-02-21 07:56:00,21.6,3.0,29.26,NW,319,0.0,3.6,44,0.00,,CLR,0.00,VWS V14.01,2013-02-21 12:56:00,
2013-02-21 08:02:00,21.6,3.0,29.26,WNW,282,7.2,7.2,44,0.00,,CLR,0.00,VWS V14.01,2013-02-21 13:02:00,
2013-02-21 08:07:00,21.4,2.9,29.26,WNW,295,0.0,2.7,44,0.00,,CLR,0.00,VWS V14.01,2013-02-21 13:07:00,
2013-02-21 08:12:00,21.6,3.0,29.26,West,276,6.3,6.3,44,0.00,,CLR,0.00,VWS V14.01,2013-02-21 13:12:00,
2013-02-21 08:17:00,21.6,3.0,29.26,WNW,301,5.4,5.4,44,0.00,,CLR,0.00,VWS V14.01,2013-02-21 13:17:00,
2013-02-21 08:22:00,21.6,3.0,29.26,NNW,342,4.5,4.5,44,0.00,,CLR,0.00,VWS V14.01,2013-02-21 13:22:00,
2013-02-21 08:27:00,21.6,2.5,29.26,WNW,292,7.2,7.2,43,0.00,,CLR,0.00,VWS V14.01,2013-02-21 13:27:00,
2013-02-21 08:32:00,21.6,3.0,29.26,West,271,0.0,0.0,44,0.00,,CLR,0.00,VWS V14.01,2013-02-21 13:32:00,
2013-02-21 08:37:00,21.9,3.4,29.26,WSW,245,0.0,0.0,44,0.00,,CLR,0.00,VWS V14.01,2013-02-21 13:37:00,
2013-02-21 08:42:00,21.9,3.4,29.26,NNW,343,5.4,5.4,44,0.00,,CLR,0.00,VWS V14.01,2013-02-21 13:42:00,
2013-02-21 08:47:00,22.1,3.5,29.23,West,270,0.0,0.0,44,0.00,,CLR,0.00,VWS V14.01,2013-02-21 13:47:00,
2013-02-21 08:52:00,22.1,3.0,29.23,NW,321,7.2,7.2,43,0.00,,CLR,0.00,VWS V14.01,2013-02-21 13:52:00,
2013-02-21 08:57:00,22.1,3.0,29.23,SW,228,6.3,6.3,43,0.00,,CLR,0.00,VWS V14.01,2013-02-21 13:57:00,
2013-02-21 09:03:00,22.5,3.4,29.23,NW,324,0.0,5.4,43,0.00,,CLR,0.00,VWS V14.01,2013-02-21 14:03:00,
2013-02-21 09:08:00,22.6,3.5,29.23,NW,323,12.5,12.5,43,0.00,,CLR,0.00,VWS V14.01,2013-02-21 14:08:00,
2013-02-21 09:13:00,22.8,3.7,29.23,SW,230,12.5,12.5,43,0.00,,CLR,0.00,VWS V14.01,2013-02-21 14:13:00,
2013-02-21 09:18:00,23.0,3.8,29.23,NNW,327,7.2,7.2,43,0.00,,CLR,0.00,VWS V14.01,2013-02-21 14:18:00,
2013-02-21 09:23:00,23.2,3.5,29.23,WSW,252,11.6,11.6,42,0.00,,CLR,0.00,VWS V14.01,2013-02-21 14:23:00,
2013-02-21 09:28:00,23.5,4.3,29.23,SW,226,5.4,5.4,43,0.00,,CLR,0.00,VWS V14.01,2013-02-21 14:28:00,
2013-02-21 09:33:00,23.9,4.2,29.26,West,272,6.3,6.3,42,0.00,,CLR,0.00,VWS V14.01,2013-02-21 14:33:00,
2013-02-21 09:38:00,24.1,4.3,29.26,NW,322,6.3,6.3,42,0.00,,CLR,0.00,VWS V14.01,2013-02-21 14:38:00,
2013-02-21 09:43:00,24.3,4.5,29.26,NNW,340,0.0,4.0,42,0.00,,CLR,0.00,VWS V14.01,2013-02-21 14:43:00,
2013-02-21 09:48:00,24.3,4.5,29.26,WNW,298,8.1,8.1,42,0.00,,CLR,0.00,VWS V14.01,2013-02-21 14:48:00,
2013-02-21 09:53:00,24.3,4.5,29.26,West,265,5.4,5.4,42,0.00,,CLR,0.00,VWS V14.01,2013-02-21 14:53:00,
2013-02-21 09:59:00,24.3,4.5,29.26,North,353,5.4,5.4,42,0.00,,CLR,0.00,VWS V14.01,2013-02-21 14:59:00,
2013-02-21 10:04:00,24.4,4.7,29.26,West,263,6.3,6.3,42,0.00,,CLR,0.00,VWS V14.01,2013-02-21 15:04:00,
2013-02-21 10:09:00,24.4,4.7,29.26,North,357,5.4,5.4,42,0.00,,CLR,0.00,VWS V14.01,2013-02-21 15:09:00,
2013-02-21 10:14:00,24.8,5.0,29.26,NW,307,6.3,6.3,42,0.00,,CLR,0.00,VWS V14.01,2013-02-21 15:14:00,
2013-02-21 10:19:00,25.0,5.1,29.26,NNW,338,7.2,7.2,42,0.00,,CLR,0.00,VWS V14.01,2013-02-21 15:19:00,
2013-02-21 10:24:00,25.3,5.5,29.26,NW,313,5.4,5.8,42,0.00,,CLR,0.00,VWS V14.01,2013-02-21 15:24:00,
2013-02-21 10:29:00,25.3,5.5,29.26,NW,318,7.2,7.2,42,0.00,,CLR,0.00,VWS V14.01,2013-02-21 15:29:00,
2013-02-21 10:34:00,25.3,5.5,29.26,NNW,348,6.3,6.3,42,0.00,,CLR,0.00,VWS V14.01,2013-02-21 15:34:00,
2013-02-21 10:39:00,25.3,5.5,29.26,NW,321,6.3,6.3,42,0.00,,CLR,0.00,VWS V14.01,2013-02-21 15:39:00,
2013-02-21 10:44:00,25.3,5.5,29.26,North,0,0.0,0.0,42,0.00,,CLR,0.00,VWS V14.01,2013-02-21 15:44:00,
2013-02-21 10:49:00,25.7,5.8,29.26,North,2,8.1,8.1,42,0.00,,CLR,0.00,VWS V14.01,2013-02-21 15:49:00,
2013-02-21 10:55:00,25.5,5.6,29.26,NNW,336,4.5,4.5,42,0.00,,CLR,0.00,VWS V14.01,2013-02-21 15:55:00,
2013-02-21 11:00:00,25.3,5.5,29.26,NNW,338,6.3,6.3,42,0.00,,CLR,0.00,VWS V14.01,2013-02-21 16:00:00,
2013-02-21 11:05:00,25.2,5.3,29.26,NW,323,6.3,6.3,42,0.00,,FEW049,0.00,VWS V14.01,2013-02-21 16:05:00,
2013-02-21 11:10:00,25.2,5.3,29.26,NW,314,7.2,7.2,42,0.00,,FEW049,0.00,VWS V14.01,2013-02-21 16:10:00,
2013-02-21 11:15:00,25.3,5.5,29.26,NW,312,5.4,5.4,42,0.00,,FEW049,0.00,VWS V14.01,2013-02-21 16:15:00,
2013-02-21 11:20:00,25.7,5.8,29.26,NNW,344,0.0,3.1,42,0.00,,FEW049,0.00,VWS V14.01,2013-02-21 16:20:00,
2013-02-21 11:25:00,25.9,6.0,29.26,NE,39,0.0,4.9,42,0.00,,FEW049,0.00,VWS V14.01,2013-02-21 16:25:00,
2013-02-21 11:30:00,26.1,6.1,29.26,NNW,338,4.5,5.4,42,0.00,,FEW049,0.00,VWS V14.01,2013-02-21 16:30:00,
2013-02-21 11:35:00,26.2,6.3,29.26,NW,308,4.5,4.5,42,0.00,,FEW049,0.00,VWS V14.01,2013-02-21 16:35:00,
2013-02-21 11:41:00,26.6,6.6,29.26,ENE,74,5.4,5.4,42,0.00,,FEW049,0.00,VWS V14.01,2013-02-21 16:41:00,
2013-02-21 11:46:00,26.2,6.3,29.26,NNE,25,0.0,4.9,42,0.00,,FEW049,0.00,VWS V14.01,2013-02-21 16:46:00,
2013-02-21 11:51:00,26.1,6.1,29.26,WNW,291,6.3,6.3,42,0.00,,FEW049,0.00,VWS V14.01,2013-02-21 16:51:00,
2013-02-21 11:56:00,26.1,6.1,29.26,North,350,0.0,2.7,42,0.00,,FEW049,0.00,VWS V14.01,2013-02-21 16:56:00,
2013-02-21 12:01:00,26.4,6.4,29.26,NNE,26,9.8,9.8,42,0.00,,OVC085,0.00,VWS V14.01,2013-02-21 17:01:00,
2013-02-21 12:06:00,26.8,6.8,29.26,North,9,5.4,5.4,42,0.00,,OVC085,0.00,VWS V14.01,2013-02-21 17:06:00,
2013-02-21 12:11:00,27.0,6.9,29.26,WNW,287,5.4,5.4,42,0.00,,OVC085,0.00,VWS V14.01,2013-02-21 17:11:00,
2013-02-21 12:16:00,27.0,6.9,29.26,NNW,341,6.3,6.3,42,0.00,,OVC085,0.00,VWS V14.01,2013-02-21 17:16:00,
2013-02-21 12:21:00,27.0,6.9,29.26,NE,41,11.6,11.6,42,0.00,,OVC085,0.00,VWS V14.01,2013-02-21 17:21:00,
2013-02-21 12:26:00,27.3,7.3,29.26,NNW,328,8.1,8.1,42,0.00,,OVC085,0.00,VWS V14.01,2013-02-21 17:26:00,
2013-02-21 12:31:00,27.9,8.3,29.26,WNW,299,5.4,5.4,43,0.00,,OVC085,0.00,VWS V14.01,2013-02-21 17:31:00,
2013-02-21 12:37:00,28.0,7.9,29.26,NW,310,0.0,2.7,42,0.00,,OVC085,0.00,VWS V14.01,2013-02-21 17:37:00,
2013-02-21 12:42:00,28.0,8.4,29.26,WSW,249,8.1,8.1,43,0.00,,OVC085,0.00,VWS V14.01,2013-02-21 17:42:00,
2013-02-21 12:47:00,27.9,8.3,29.26,WSW,239,0.0,0.0,43,0.00,,OVC085,0.00,VWS V14.01,2013-02-21 17:47:00,
2013-02-21 12:52:00,27.7,8.1,29.26,NNE,18,5.4,5.4,43,0.00,,OVC085,0.00,VWS V14.01,2013-02-21 17:52:00,
2013-02-21 12:57:00,27.5,7.9,29.26,NW,323,8.1,8.1,43,0.00,,OVC085,0.00,VWS V14.01,2013-02-21 17:57:00,
2013-02-21 13:02:00,27.1,7.6,29.26,NW,310,4.5,4.5,43,0.00,,OVC085,0.00,VWS V14.01,2013-02-21 18:02:00,
2013-02-21 13:07:00,27.0,8.0,29.29,NW,323,5.4,5.4,44,0.00,,OVC085,0.00,VWS V14.01,2013-02-21 18:07:00,
2013-02-21 13:12:00,26.8,7.8,29.29,WNW,291,12.5,12.5,44,0.00,,OVC080,0.00,VWS V14.01,2013-02-21 18:12:00,
2013-02-21 13:17:00,26.4,8.0,29.29,North,7,11.6,11.6,45,0.00,,OVC080,0.00,VWS V14.01,2013-02-21 18:17:00,
2013-02-21 13:22:00,26.2,8.3,29.29,NW,318,0.0,0.0,46,0.00,,OVC080,0.00,VWS V14.01,2013-02-21 18:22:00,
2013-02-21 13:27:00,26.2,8.3,29.29,NW,323,0.0,3.1,46,0.00,,OVC080,0.00,VWS V14.01,2013-02-21 18:27:00,
2013-02-21 13:33:00,26.2,8.3,29.29,North,353,0.0,2.2,46,0.00,,OVC080,0.00,VWS V14.01,2013-02-21 18:33:00,
2013-02-21 13:38:00,26.4,8.5,29.29,WNW,288,6.3,6.3,46,0.00,,OVC080,0.00,VWS V14.01,2013-02-21 18:38:00,
2013-02-21 13:43:00,26.6,8.6,29.29,WNW,303,4.5,4.5,46,0.00,,OVC080,0.00,VWS V14.01,2013-02-21 18:43:00,
2013-02-21 13:48:00,26.8,8.8,29.29,NW,325,6.3,6.3,46,0.00,,OVC080,0.00,VWS V14.01,2013-02-21 18:48:00,
2013-02-21 13:53:00,26.8,8.8,29.29,NNE,28,6.3,6.3,46,0.00,,OVC080,0.00,VWS V14.01,2013-02-21 18:53:00,
2013-02-21 13:58:00,26.8,9.3,29.29,NW,310,8.1,8.1,47,0.00,,OVC080,0.00,VWS V14.01,2013-02-21 18:58:00,
2013-02-21 14:03:00,26.6,9.1,29.29,North,1,0.0,0.0,47,0.00,,OVC085,0.00,VWS V14.01,2013-02-21 19:03:00,
2013-02-21 14:08:00,26.6,9.6,29.29,NW,325,0.0,0.0,48,0.00,,OVC085,0.00,VWS V14.01,2013-02-21 19:08:00,
2013-02-21 14:13:00,26.6,9.6,29.29,NW,304,5.4,5.4,48,0.00,,OVC085,0.00,VWS V14.01,2013-02-21 19:13:00,
2013-02-21 14:18:00,26.8,9.7,29.29,North,357,6.3,6.3,48,0.00,,OVC085,0.00,VWS V14.01,2013-02-21 19:18:00,
2013-02-21 14:23:00,26.8,9.7,29.29,NW,305,5.4,5.4,48,0.00,,OVC085,0.00,VWS V14.01,2013-02-21 19:23:00,
2013-02-21 14:28:00,26.6,10.5,29.29,NNW,334,5.4,5.4,50,0.00,,OVC085,0.00,VWS V14.01,2013-02-21 19:28:00,
2013-02-21 14:33:00,26.6,10.9,29.29,North,0,7.2,7.2,51,0.00,,OVC085,0.00,VWS V14.01,2013-02-21 19:33:00,
2013-02-21 14:39:00,26.4,10.8,29.29,NNE,14,0.0,2.7,51,0.00,,OVC085,0.00,VWS V14.01,2013-02-21 19:39:00,
2013-02-21 14:44:00,26.4,11.2,29.29,NNW,328,0.0,3.1,52,0.00,,OVC085,0.00,VWS V14.01,2013-02-21 19:44:00,
2013-02-21 14:49:00,26.4,11.6,29.29,NE,52,5.4,5.4,53,0.00,,OVC085,0.00,VWS V14.01,2013-02-21 19:49:00,
2013-02-21 14:54:00,26.2,11.9,29.29,NNW,331,4.5,4.5,54,0.00,,OVC085,0.00,VWS V14.01,2013-02-21 19:54:00,
2013-02-21 14:59:00,26.1,12.1,29.29,NNE,28,0.0,2.2,55,0.00,,OVC085,0.00,VWS V14.01,2013-02-21 19:59:00,
2013-02-21 15:04:00,25.9,11.9,29.32,WNW,290,0.0,0.0,55,0.00,,,0.00,VWS V14.01,2013-02-21 20:04:00,
2013-02-21 15:09:00,25.9,12.4,29.32,NNW,338,6.3,6.3,56,0.00,,,0.00,VWS V14.01,2013-02-21 20:09:00,
2013-02-21 15:14:00,25.9,13.1,29.32,North,0,0.0,0.0,58,0.00,,,0.00,VWS V14.01,2013-02-21 20:14:00,
2013-02-21 15:19:00,25.7,13.0,29.32,NW,307,4.5,4.5,58,0.00,,,0.00,VWS V14.01,2013-02-21 20:19:00,
2013-02-21 15:24:00,25.7,13.0,29.32,NW,323,0.0,0.0,58,0.00,,,0.00,VWS V14.01,2013-02-21 20:24:00,
2013-02-21 15:29:00,25.9,13.1,29.32,NNW,328,0.0,0.0,58,0.00,,,0.00,VWS V14.01,2013-02-21 20:29:00,
2013-02-21 15:35:00,26.1,13.7,29.32,NNE,30,5.4,5.4,59,0.00,,,0.00,VWS V14.01,2013-02-21 20:35:00,
2013-02-21 15:40:00,26.1,14.1,29.32,NW,325,4.5,4.5,60,0.00,,,0.00,VWS V14.01,2013-02-21 20:40:00,
2013-02-21 15:45:00,26.2,14.3,29.32,West,267,8.1,8.1,60,0.00,,,0.00,VWS V14.01,2013-02-21 20:45:00,
2013-02-21 15:50:00,26.2,14.6,29.32,North,353,6.3,6.3,61,0.00,,,0.00,VWS V14.01,2013-02-21 20:50:00,
2013-02-21 15:55:00,26.4,14.8,29.32,NW,309,4.5,4.5,61,0.00,,,0.00,VWS V14.01,2013-02-21 20:55:00,
2013-02-21 16:00:00,26.4,14.8,29.32,NNE,14,0.0,0.0,61,0.00,,,0.00,VWS V14.01,2013-02-21 21:00:00,
2013-02-21 16:05:00,26.6,15.0,29.32,North,10,0.0,0.0,61,0.00,,,0.00,VWS V14.01,2013-02-21 21:05:00,
2013-02-21 16:11:00,26.8,15.1,29.32,WNW,301,6.3,6.3,61,0.00,,,0.00,VWS V14.01,2013-02-21 21:11:00,
2013-02-21 16:16:00,26.8,15.1,29.32,NW,324,0.0,0.0,61,0.00,,,0.00,VWS V14.01,2013-02-21 21:16:00,
2013-02-21 16:21:00,26.8,15.1,29.35,NNE,20,0.0,2.2,61,0.00,,,0.00,VWS V14.01,2013-02-21 21:21:00,
2013-02-21 16:26:00,26.8,15.1,29.35,NW,315,8.1,8.1,61,0.00,,,0.00,VWS V14.01,2013-02-21 21:26:00,
2013-02-21 16:31:00,26.8,15.1,29.35,NNW,344,0.0,2.7,61,0.00,,,0.00,VWS V14.01,2013-02-21 21:31:00,
2013-02-21 16:36:00,26.8,15.1,29.35,WNW,284,0.0,0.0,61,0.00,,,0.00,VWS V14.01,2013-02-21 21:36:00,
2013-02-21 16:41:00,27.0,15.3,29.35,NNW,337,0.0,0.0,61,0.00,,,0.00,VWS V14.01,2013-02-21 21:41:00,
2013-02-21 16:46:00,27.0,14.9,29.35,East,79,0.0,3.6,60,0.00,,,0.00,VWS V14.01,2013-02-21 21:46:00,
2013-02-21 16:51:00,27.1,14.7,29.35,West,261,7.2,7.2,59,0.00,,,0.00,VWS V14.01,2013-02-21 21:51:00,
2013-02-21 16:56:00,27.3,14.5,29.35,North,349,0.0,0.0,58,0.00,,,0.00,VWS V14.01,2013-02-21 21:56:00,
2013-02-21 17:02:00,27.3,14.1,29.35,NNW,332,0.0,0.0,57,0.00,,OVC100,0.00,VWS V14.01,2013-02-21 22:02:00,
2013-02-21 17:07:00,27.3,14.1,29.38,NW,315,0.0,0.0,57,0.00,,OVC100,0.00,VWS V14.01,2013-02-21 22:07:00,
2013-02-21 17:12:00,27.5,14.3,29.38,WNW,284,0.0,4.9,57,0.00,,OVC100,0.00,VWS V14.01,2013-02-21 22:12:00,
2013-02-21 17:17:00,27.5,13.9,29.38,NW,323,7.2,7.2,56,0.00,,OVC100,0.00,VWS V14.01,2013-02-21 22:17:00,
2013-02-21 17:22:00,27.5,13.9,29.38,WNW,301,0.0,2.2,56,0.00,,OVC100,0.00,VWS V14.01,2013-02-21 22:22:00,
2013-02-21 17:27:00,27.5,13.9,29.38,NW,310,0.0,0.0,56,0.00,,OVC100,0.00,VWS V14.01,2013-02-21 22:27:00,
2013-02-21 17:32:00,27.5,13.9,29.38,WNW,290,0.0,0.0,56,0.00,,OVC100,0.00,VWS V14.01,2013-02-21 22:32:00,
2013-02-21 17:37:00,27.5,13.9,29.38,NNW,329,7.2,7.2,56,0.00,,OVC100,0.00,VWS V14.01,2013-02-21 22:37:00,
2013-02-21 17:42:00,27.7,14.0,29.38,NW,321,8.1,8.1,56,0.00,,OVC100,0.00,VWS V14.01,2013-02-21 22:42:00,
2013-02-21 17:47:00,27.7,14.0,29.41,NNW,337,4.5,4.5,56,0.00,,OVC100,0.00,VWS V14.01,2013-02-21 22:47:00,
2013-02-21 17:52:00,27.9,14.2,29.41,NNW,327,0.0,0.0,56,0.00,,OVC100,0.00,VWS V14.01,2013-02-21 22:52:00,
2013-02-21 17:57:00,27.9,14.2,29.41,NNW,343,11.6,11.6,56,0.00,,OVC100,0.00,VWS V14.01,2013-02-21 22:57:00,
2013-02-21 18:02:00,28.0,14.0,29.41,NNE,32,5.4,5.4,55,0.00,,OVC095,0.00,VWS V14.01,2013-02-21 23:02:00,
2013-02-21 18:08:00,28.0,14.0,29.41,WSW,248,0.0,4.9,55,0.00,,OVC095,0.00,VWS V14.01,2013-02-21 23:08:00,
2013-02-21 18:13:00,28.0,14.0,29.41,West,269,6.3,6.3,55,0.00,,OVC095,0.00,VWS V14.01,2013-02-21 23:13:00,
2013-02-21 18:18:00,28.2,14.1,29.41,North,357,0.0,0.0,55,0.00,,OVC095,0.00,VWS V14.01,2013-02-21 23:18:00,
2013-02-21 18:23:00,28.2,14.1,29.41,NNW,329,0.0,0.0,55,0.00,,OVC095,0.00,VWS V14.01,2013-02-21 23:23:00,
2013-02-21 18:28:00,28.2,14.6,29.41,NNW,339,0.0,0.0,56,0.00,,OVC095,0.00,VWS V14.01,2013-02-21 23:28:00,
2013-02-21 18:33:00,28.4,14.3,29.44,NE,37,0.0,4.9,55,0.00,,OVC095,0.00,VWS V14.01,2013-02-21 23:33:00,
2013-02-21 18:38:00,28.4,14.3,29.44,WNW,287,12.5,12.5,55,0.00,,OVC095,0.00,VWS V14.01,2013-02-21 23:38:00,
2013-02-21 18:43:00,28.4,14.7,29.44,WNW,287,0.0,3.1,56,0.00,,OVC095,0.00,VWS V14.01,2013-02-21 23:43:00,
2013-02-21 18:48:00,28.4,14.7,29.44,NNE,12,6.3,6.3,56,0.00,,OVC095,0.00,VWS V14.01,2013-02-21 23:48:00,
2013-02-21 18:54:00,28.6,15.3,29.44,WNW,299,8.1,8.1,57,0.00,,OVC095,0.00,VWS V14.01,2013-02-21 23:54:00,
2013-02-21 18:59:00,28.6,15.3,29.44,NNW,344,6.3,6.3,57,0.00,,OVC095,0.00,VWS V14.01,2013-02-21 23:59:00,
2013-02-21 19:04:00,28.8,15.1,29.47,West,270,5.4,7.2,56,0.00,,OVC095,0.00,VWS V14.01,2013-02-22 00:04:00,
2013-02-21 19:09:00,28.8,15.5,29.47,West,275,6.3,8.7,57,0.00,,OVC095,0.00,VWS V14.01,2013-02-22 00:09:00,
2013-02-21 19:14:00,29.1,15.8,29.47,North,5,0.0,4.0,57,0.00,,OVC095,0.00,VWS V14.01,2013-02-22 00:14:00,
2013-02-21 19:19:00,29.1,15.4,29.47,WNW,292,0.0,2.7,56,0.00,,OVC095,0.00,VWS V14.01,2013-02-22 00:19:00,
2013-02-21 19:24:00,29.1,15.4,29.47,ENE,57,6.3,6.3,56,0.00,,OVC095,0.00,VWS V14.01,2013-02-22 00:24:00,
2013-02-21 19:29:00,29.3,15.6,29.47,NW,316,7.2,7.2,56,0.00,,OVC095,0.00,VWS V14.01,2013-02-22 00:29:00,
2013-02-21 19:35:00,29.5,16.1,29.47,NW,325,5.4,5.4,57,0.00,,OVC095,0.00,VWS V14.01,2013-02-22 00:35:00,
2013-02-21 19:40:00,29.5,16.1,29.47,NNW,331,4.5,4.5,57,0.00,,OVC095,0.00,VWS V14.01,2013-02-22 00:40:00,
2013-02-21 19:45:00,29.7,16.3,29.47,NNW,341,0.0,6.7,57,0.00,,OVC095,0.00,VWS V14.01,2013-02-22 00:45:00,
2013-02-21 19:50:00,29.8,16.5,29.50,WNW,299,5.4,5.4,57,0.00,,OVC095,0.00,VWS V14.01,2013-02-22 00:50:00,
2013-02-21 19:55:00,29.8,16.5,29.50,NNW,338,7.2,7.2,57,0.00,,OVC095,0.00,VWS V14.01,2013-02-22 00:55:00,
2013-02-21 20:00:00,30.0,17.0,29.50,NW,315,4.5,5.4,58,0.00,,OVC095,0.00,VWS V14.01,2013-02-22 01:00:00,
2013-02-21 20:05:00,30.0,17.0,29.50,NNE,30,4.5,4.5,58,0.00,,OVC041,0.00,VWS V14.01,2013-02-22 01:05:00,
2013-02-21 20:10:00,30.2,17.2,29.50,NNW,344,4.5,4.5,58,0.00,,OVC041,0.00,VWS V14.01,2013-02-22 01:10:00,
2013-02-21 20:15:00,30.2,17.2,29.50,North,9,0.0,4.0,58,0.00,,OVC041,0.00,VWS V14.01,2013-02-22 01:15:00,
2013-02-21 20:21:00,30.4,17.4,29.50,NNE,13,0.0,4.5,58,0.00,,OVC041,0.00,VWS V14.01,2013-02-22 01:21:00,
2013-02-21 20:26:00,30.6,17.6,29.50,NE,49,6.3,6.3,58,0.00,,OVC041,0.00,VWS V14.01,2013-02-22 01:26:00,
2013-02-21 20:31:00,30.6,17.6,29.50,WNW,288,4.5,4.5,58,0.00,,OVC041,0.00,VWS V14.01,2013-02-22 01:31:00,
2013-02-21 20:36:00,30.7,17.7,29.53,NNW,345,6.3,6.3,58,0.00,,OVC041,0.00,VWS V14.01,2013-02-22 01:36:00,
2013-02-21 20:41:00,30.7,17.7,29.53,North,353,5.4,5.4,58,0.00,,OVC041,0.00,VWS V14.01,2013-02-22 01:41:00,
2013-02-21 20:46:00,30.9,18.3,29.53,NNE,31,8.1,8.1,59,0.00,,OVC041,0.00,VWS V14.01,2013-02-22 01:46:00,
2013-02-21 20:51:00,31.1,18.5,29.53,NE,56,6.3,6.3,59,0.00,,OVC041,0.00,VWS V14.01,2013-02-22 01:51:00,
2013-02-21 20:56:00,31.1,18.1,29.53,NE,34,0.0,3.1,58,0.00,,OVC041,0.00,VWS V14.01,2013-02-22 01:56:00,
2013-02-21 21:02:00,31.1,18.1,29.53,NNE,13,4.5,4.5,58,0.00,,OVC100,0.00,VWS V14.01,2013-02-22 02:02:00,
2013-02-21 21:07:00,31.3,18.2,29.53,NE,39,0.0,5.4,58,0.00,,OVC100,0.00,VWS V14.01,2013-02-22 02:07:00,
2013-02-21 21:12:00,31.3,18.2,29.53,NE,34,0.0,2.7,58,0.00,,OVC100,0.00,VWS V14.01,2013-02-22 02:12:00,
2013-02-21 21:17:00,31.3,18.2,29.53,NW,312,6.3,6.3,58,0.00,,OVC100,0.00,VWS V14.01,2013-02-22 02:17:00,
2013-02-21 21:22:00,31.3,18.2,29.56,NNW,332,0.0,2.2,58,0.00,,OVC100,0.00,VWS V14.01,2013-02-22 02:22:00,
2013-02-21 21:27:00,31.1,18.5,29.56,NE,56,0.0,2.7,59,0.00,,OVC100,0.00,VWS V14.01,2013-02-22 02:27:00,
2013-02-21 21:32:00,31.1,18.5,29.56,NE,41,11.6,11.6,59,0.00,,OVC100,0.00,VWS V14.01,2013-02-22 02:32:00,
2013-02-21 21:37:00,31.1,18.5,29.56,NNW,335,7.2,7.2,59,0.00,,OVC100,0.00,VWS V14.01,2013-02-22 02:37:00,
2013-02-21 21:43:00,31.1,18.5,29.56,ENE,65,5.4,5.4,59,0.00,,OVC100,0.00,VWS V14.01,2013-02-22 02:43:00,
2013-02-21 21:48:00,31.1,18.9,29.56,ENE,57,0.0,0.0,60,0.00,,OVC100,0.00,VWS V14.01,2013-02-22 02:48:00,
2013-02-21 21:53:00,31.1,18.9,29.56,NNE,22,4.5,5.4,60,0.00,,OVC100,0.00,VWS V14.01,2013-02-22 02:53:00,
2013-02-21 21:58:00,31.1,18.9,29.56,NE,39,0.0,3.1,60,0.00,,OVC100,0.00,VWS V14.01,2013-02-22 02:58:00,
2013-02-21 22:03:00,30.9,18.7,29.59,North,1,5.4,5.4,60,0.00,,BKN100,0.00,VWS V14.01,2013-02-22 03:03:00,
2013-02-21 22:08:00,30.9,19.1,29.59,NNW,339,11.6,11.6,61,0.00,,BKN100,0.00,VWS V14.01,2013-02-22 03:08:00,
2013-02-21 22:13:00,30.7,18.9,29.59,NW,323,5.4,5.4,61,0.00,,BKN100,0.00,VWS V14.01,2013-02-22 03:13:00,
2013-02-21 22:18:00,30.6,19.1,29.59,NNE,14,0.0,3.1,62,0.00,,BKN100,0.00,VWS V14.01,2013-02-22 03:18:00,
2013-02-21 22:23:00,30.2,18.8,29.59,North,10,8.1,8.1,62,0.00,,BKN100,0.00,VWS V14.01,2013-02-22 03:23:00,
2013-02-21 22:28:00,30.2,19.1,29.59,NNW,328,7.2,7.2,63,0.00,,BKN100,0.00,VWS V14.01,2013-02-22 03:28:00,
2013-02-21 22:33:00,30.2,19.5,29.59,North,357,0.0,2.2,64,0.00,,BKN100,0.00,VWS V14.01,2013-02-22 03:33:00,
2013-02-21 22:39:00,30.2,19.5,29.59,NNE,15,0.0,3.6,64,0.00,,BKN100,0.00,VWS V14.01,2013-02-22 03:39:00,
2013-02-21 22:44:00,29.8,19.2,29.59,North,353,0.0,3.6,64,0.00,,BKN100,0.00,VWS V14.01,2013-02-22 03:44:00,
2013-02-21 22:49:00,30.0,19.7,29.59,NE,56,5.4,5.4,65,0.00,,BKN100,0.00,VWS V14.01,2013-02-22 03:49:00,
2013-02-21 22:54:00,30.0,19.7,29.59,North,8,10.7,10.7,65,0.00,,BKN100,0.00,VWS V14.01,2013-02-22 03:54:00,
2013-02-21 22:59:00,30.2,20.2,29.59,NNW,327,6.3,6.3,66,0.00,,BKN100,0.00,VWS V14.01,2013-02-22 03:59:00,
2013-02-21 23:04:00,30.4,20.4,29.59,NE,38,0.0,0.0,66,0.00,,CLR,0.00,VWS V14.01,2013-02-22 04:04:00,
2013-02-21 23:09:00,30.4,20.4,29.59,NNE,20,0.0,0.0,66,0.00,,CLR,0.00,VWS V14.01,2013-02-22 04:09:00,
2013-02-21 23:14:00,30.6,20.6,29.59,NNE,33,0.0,0.0,66,0.00,,CLR,0.00,VWS V14.01,2013-02-22 04:14:00,
2013-02-21 23:19:00,30.7,20.7,29.59,NNW,343,6.3,6.3,66,0.00,,CLR,0.00,VWS V14.01,2013-02-22 04:19:00,
2013-02-21 23:24:00,30.9,20.9,29.59,NNW,341,5.4,5.4,66,0.00,,CLR,0.00,VWS V14.01,2013-02-22 04:24:00,
2013-02-21 23:29:00,31.1,20.7,29.59,NE,35,0.0,4.0,65,0.00,,CLR,0.00,VWS V14.01,2013-02-22 04:29:00,
2013-02-21 23:35:00,31.1,20.7,29.62,North,353,0.0,2.2,65,0.00,,CLR,0.00,VWS V14.01,2013-02-22 04:35:00,
2013-02-21 23:40:00,31.1,20.4,29.62,NE,46,7.2,7.2,64,0.00,,CLR,0.00,VWS V14.01,2013-02-22 04:40:00,
2013-02-21 23:45:00,31.1,20.4,29.62,NW,306,0.0,0.0,64,0.00,,CLR,0.00,VWS V14.01,2013-02-22 04:45:00,
2013-02-21 23:50:00,30.9,19.8,29.62,NNE,19,0.0,3.1,63,0.00,,CLR,0.00,VWS V14.01,2013-02-22 04:50:00,
2013-02-21 23:55:00,31.1,20.0,29.62,North,357,0.0,0.0,63,0.00,,CLR,0.00,VWS V14.01,2013-02-22 04:55:00,